createdAt,value
2023-05-21T00:00:12.039Z,21.67
2023-05-21T00:02:39.647Z,22.40
2023-05-21T00:05:11.647Z,22.63
2023-05-21T00:07:41.252Z,22.23
2023-05-21T00:10:08.685Z,22.00
2023-05-21T00:12:36.005Z,21.42
2023-05-21T00:15:03.268Z,21.17
2023-05-21T00:17:30.457Z,22.35
2023-05-21T00:19:57.640Z,21.80
2023-05-21T00:22:24.908Z,21.52
2023-05-21T00:24:52.060Z,21.63
2023-05-21T00:27:19.215Z,21.23
2023-05-21T00:29:46.455Z,20.80
2023-05-21T00:32:13.655Z,20.38
2023-05-21T00:34:41.451Z,20.52
2023-05-21T00:37:10.110Z,21.10
2023-05-21T00:39:37.331Z,20.27
2023-05-21T00:42:04.578Z,20.65
2023-05-21T00:44:34.335Z,21.30
2023-05-21T00:47:02.203Z,20.48
2023-05-21T00:49:29.699Z,20.58
2023-05-21T00:51:56.915Z,20.65
2023-05-21T00:54:24.868Z,21.35
2023-05-21T00:56:52.003Z,21.88
2023-05-21T00:59:19.284Z,22.95
2023-05-21T01:01:46.610Z,21.42
2023-05-21T01:04:13.843Z,20.88
2023-05-21T01:06:42.634Z,21.45
2023-05-21T01:09:09.946Z,21.33
2023-05-21T01:11:41.160Z,20.55
2023-05-21T01:14:09.465Z,21.15
2023-05-21T01:16:40.915Z,21.20
2023-05-21T01:19:10.349Z,21.38
2023-05-21T01:21:37.988Z,19.58
2023-05-21T01:24:05.639Z,21.73
2023-05-21T01:26:33.956Z,23.17
2023-05-21T01:29:01.430Z,22.23
2023-05-21T01:31:31.673Z,23.77
2023-05-21T01:33:58.878Z,21.38
2023-05-21T01:36:26.834Z,20.98
2023-05-21T01:39:12.846Z,21.42
2023-05-21T01:41:41.304Z,23.08
2023-05-21T01:44:08.441Z,24.25
2023-05-21T01:46:36.766Z,22.50
2023-05-21T01:49:03.998Z,22.15
2023-05-21T01:51:31.122Z,21.95
2023-05-21T01:53:58.338Z,21.67
2023-05-21T01:56:25.849Z,21.02
2023-05-21T01:58:53.234Z,21.38
2023-05-21T02:01:20.752Z,19.63
2023-05-21T02:03:48.067Z,19.65
2023-05-21T02:06:15.295Z,21.13
2023-05-21T02:08:42.465Z,21.23
2023-05-21T02:11:09.638Z,20.95
2023-05-21T02:13:42.064Z,22.63
2023-05-21T02:16:14.889Z,22.08
2023-05-21T02:18:46.432Z,20.50
2023-05-21T02:21:13.726Z,21.23
2023-05-21T02:23:41.764Z,23.27
2023-05-21T02:26:08.943Z,23.13
2023-05-21T02:28:36.385Z,21.75
2023-05-21T02:31:04.059Z,22.15
2023-05-21T02:33:31.284Z,22.00
2023-05-21T02:35:58.520Z,22.25
2023-05-21T02:38:26.047Z,20.73
2023-05-21T02:40:53.401Z,20.80
2023-05-21T02:43:20.830Z,20.52
2023-05-21T02:45:48.131Z,20.27
2023-05-21T02:48:15.382Z,20.05
2023-05-21T02:50:42.604Z,28.13
2023-05-21T02:53:09.781Z,25.30
2023-05-21T02:55:37.102Z,19.58
2023-05-21T02:58:04.518Z,20.45
2023-05-21T03:00:31.665Z,19.30
2023-05-21T03:02:58.884Z,19.13
2023-05-21T03:05:26.125Z,18.63
2023-05-21T03:07:53.426Z,19.73
2023-05-21T03:10:20.585Z,22.80
2023-05-21T03:12:47.718Z,23.13
2023-05-21T03:15:15.037Z,23.10
2023-05-21T03:17:42.402Z,20.75
2023-05-21T03:20:16.098Z,20.70
2023-05-21T03:22:44.484Z,20.17
2023-05-21T03:25:12.266Z,21.23
2023-05-21T03:27:39.738Z,21.05
2023-05-21T03:30:07.151Z,20.85
2023-05-21T03:32:37.782Z,21.55
2023-05-21T03:35:05.407Z,22.00
2023-05-21T03:37:32.579Z,21.40
2023-05-21T03:39:59.706Z,22.40
2023-05-21T03:42:26.867Z,21.15
2023-05-21T03:44:53.984Z,21.45
2023-05-21T03:47:39.981Z,20.75
2023-05-21T03:50:07.559Z,22.17
2023-05-21T03:52:34.745Z,21.75
2023-05-21T03:55:01.928Z,19.63
2023-05-21T03:57:29.093Z,19.15
2023-05-21T03:59:58.869Z,20.48
2023-05-21T04:02:29.274Z,26.20
2023-05-21T04:04:56.521Z,26.92
2023-05-21T04:07:23.915Z,23.33
2023-05-21T04:09:51.159Z,20.00
2023-05-21T04:12:20.045Z,21.40
2023-05-21T04:14:47.817Z,22.52
2023-05-21T04:17:14.988Z,21.60
2023-05-21T04:19:42.176Z,20.80
2023-05-21T04:22:11.101Z,22.63
2023-05-21T04:24:38.645Z,21.63
2023-05-21T04:27:06.938Z,19.70
2023-05-21T04:29:34.110Z,19.73
2023-05-21T04:32:01.310Z,19.77
2023-05-21T04:34:29.687Z,19.25
2023-05-21T04:36:56.943Z,19.52
2023-05-21T04:39:24.268Z,19.10
2023-05-21T04:41:54.580Z,19.60
2023-05-21T04:44:21.761Z,19.30
2023-05-21T04:46:49.089Z,17.40
2023-05-21T04:49:16.276Z,17.80
2023-05-21T04:51:43.449Z,18.05
2023-05-21T04:54:10.830Z,17.80
2023-05-21T04:56:37.964Z,16.98
2023-05-21T04:59:06.260Z,18.52
2023-05-21T05:01:35.087Z,17.17
2023-05-21T05:04:02.338Z,18.20
2023-05-21T05:06:29.548Z,17.35
2023-05-21T05:08:56.775Z,17.85
2023-05-21T05:11:23.918Z,16.92
2023-05-21T05:13:51.028Z,17.35
2023-05-21T05:16:24.925Z,16.80
2023-05-21T05:18:53.011Z,17.98
2023-05-21T05:21:21.263Z,17.98
2023-05-21T05:23:48.460Z,17.10
2023-05-21T05:26:15.660Z,16.02
2023-05-21T05:28:42.815Z,15.68
2023-05-21T05:31:10.142Z,16.25
2023-05-21T05:33:37.350Z,14.88
2023-05-21T05:36:04.580Z,14.88
2023-05-21T05:38:31.754Z,13.25
2023-05-21T05:40:58.904Z,13.98
2023-05-21T05:43:26.597Z,13.40
2023-05-21T05:45:53.965Z,14.52
2023-05-21T05:48:21.141Z,13.85
2023-05-21T05:50:48.530Z,15.75
2023-05-21T05:53:16.006Z,15.65
2023-05-21T05:55:43.169Z,16.00
2023-05-21T05:58:10.463Z,14.57
2023-05-21T06:00:38.215Z,15.55
2023-05-21T06:03:05.833Z,14.45
2023-05-21T06:05:33.045Z,14.07
2023-05-21T06:08:00.216Z,13.02
2023-05-21T06:10:27.340Z,12.88
2023-05-21T06:12:54.475Z,13.25
2023-05-21T06:15:21.827Z,13.00
2023-05-21T06:17:48.979Z,12.38
2023-05-21T06:20:16.836Z,12.38
2023-05-21T06:22:44.059Z,12.45
2023-05-21T06:25:11.258Z,12.45
2023-05-21T06:27:38.702Z,12.32
2023-05-21T06:30:06.197Z,10.95
2023-05-21T06:32:33.430Z,11.68
2023-05-21T06:35:00.636Z,11.43
2023-05-21T06:37:27.782Z,10.40
2023-05-21T06:39:54.920Z,11.00
2023-05-21T06:42:22.084Z,10.82
2023-05-21T06:44:49.346Z,9.43
2023-05-21T06:47:16.486Z,10.30
2023-05-21T06:49:43.668Z,9.63
2023-05-21T06:52:11.288Z,10.38
2023-05-21T06:54:38.459Z,9.27
2023-05-21T06:57:06.024Z,9.77
2023-05-21T06:59:33.223Z,9.55
2023-05-21T07:02:02.376Z,9.23
2023-05-21T07:04:30.968Z,9.25
2023-05-21T07:06:58.294Z,8.75
2023-05-21T07:09:25.734Z,8.65
2023-05-21T07:11:53.362Z,8.88
2023-05-21T07:14:20.655Z,8.20
2023-05-21T07:16:47.810Z,7.97
2023-05-21T07:19:15.821Z,9.68
2023-05-21T07:21:43.073Z,10.43
2023-05-21T07:24:10.209Z,7.75
2023-05-21T07:26:37.341Z,7.53
2023-05-21T07:29:04.524Z,8.15
2023-05-21T07:31:31.745Z,10.10
2023-05-21T07:33:58.993Z,10.15
2023-05-21T07:36:26.486Z,6.72
2023-05-21T07:38:53.902Z,6.50
2023-05-21T07:41:22.011Z,6.70
2023-05-21T07:43:49.259Z,6.45
2023-05-21T07:46:16.504Z,11.68
2023-05-21T07:48:44.116Z,7.03
2023-05-21T07:51:12.153Z,6.22
2023-05-21T07:53:39.308Z,6.40
2023-05-21T07:56:06.701Z,6.40
2023-05-21T07:58:35.261Z,7.18
2023-05-21T08:01:02.843Z,6.53
2023-05-21T08:03:31.703Z,6.70
2023-05-21T08:05:58.969Z,7.93
2023-05-21T08:08:26.512Z,6.50
2023-05-21T08:10:53.654Z,6.53
2023-05-21T08:13:20.887Z,6.22
2023-05-21T08:15:50.619Z,5.97
2023-05-21T08:18:19.306Z,7.40
2023-05-21T08:20:46.497Z,7.82
2023-05-21T08:23:13.673Z,8.20
2023-05-21T08:25:40.841Z,7.72
2023-05-21T08:28:08.026Z,8.10
2023-05-21T08:30:35.220Z,7.93
2023-05-21T08:33:02.539Z,8.23
2023-05-21T08:35:29.787Z,7.97
2023-05-21T08:37:56.958Z,8.30
2023-05-21T08:40:24.098Z,8.85
2023-05-21T08:42:51.281Z,13.73
2023-05-21T08:45:21.158Z,8.05
2023-05-21T08:47:48.319Z,12.45
2023-05-21T08:50:16.329Z,7.53
2023-05-21T08:52:43.477Z,8.32
2023-05-21T08:55:10.960Z,8.30
2023-05-21T08:57:38.172Z,9.05
2023-05-21T09:00:07.201Z,8.02
2023-05-21T09:02:34.637Z,8.05
2023-05-21T09:05:03.386Z,6.82
2023-05-21T09:07:31.733Z,8.07
2023-05-21T09:09:59.565Z,6.57
2023-05-21T09:12:26.825Z,7.82
2023-05-21T09:14:54.051Z,7.47
2023-05-21T09:17:21.265Z,8.95
2023-05-21T09:20:11.171Z,7.88
2023-05-21T09:22:41.048Z,10.35
2023-05-21T09:25:09.067Z,6.82
2023-05-21T09:27:36.339Z,6.10
2023-05-21T09:30:04.388Z,7.40
2023-05-21T09:32:31.613Z,5.80
2023-05-21T09:34:58.885Z,5.15
2023-05-21T09:37:28.106Z,5.18
2023-05-21T09:39:55.303Z,4.70
2023-05-21T09:42:22.660Z,5.40
2023-05-21T09:44:49.823Z,5.20
2023-05-21T09:47:20.377Z,6.03
2023-05-21T09:49:47.725Z,5.40
2023-05-21T09:52:14.876Z,5.63
2023-05-21T09:54:42.045Z,5.50
2023-05-21T09:57:09.257Z,6.03
2023-05-21T09:59:37.226Z,5.50
2023-05-21T10:02:04.447Z,6.05
2023-05-21T10:04:31.790Z,5.85
2023-05-21T10:06:59.038Z,5.40
2023-05-21T10:09:26.177Z,5.90
2023-05-21T10:11:53.452Z,5.35
2023-05-21T10:14:22.458Z,5.25
2023-05-21T10:16:49.908Z,4.88
2023-05-21T10:19:17.321Z,5.05
2023-05-21T10:21:44.529Z,5.03
2023-05-21T10:24:11.756Z,5.65
2023-05-21T10:26:39.045Z,4.55
2023-05-21T10:29:06.177Z,4.88
2023-05-21T10:31:33.488Z,4.72
2023-05-21T10:34:00.811Z,4.50
2023-05-21T10:36:27.969Z,4.18
2023-05-21T10:38:55.262Z,4.20
2023-05-21T10:41:22.599Z,4.53
2023-05-21T10:44:08.511Z,4.15
2023-05-21T10:46:41.882Z,4.32
2023-05-21T10:49:16.600Z,4.20
2023-05-21T10:52:00.686Z,5.70
2023-05-21T10:54:46.384Z,4.43
2023-05-21T10:57:20.477Z,4.32
2023-05-21T10:59:47.705Z,4.30
2023-05-21T11:02:17.670Z,3.65
2023-05-21T11:04:51.879Z,3.70
2023-05-21T11:07:24.594Z,3.83
2023-05-21T11:09:51.823Z,3.70
2023-05-21T11:12:19.846Z,3.80
2023-05-21T11:14:58.993Z,3.85
2023-05-21T11:17:43.187Z,3.35
2023-05-21T11:20:16.838Z,3.00
2023-05-21T11:22:43.978Z,3.60
2023-05-21T11:25:12.538Z,3.25
2023-05-21T11:27:40.907Z,2.88
2023-05-21T11:30:08.787Z,3.47
2023-05-21T11:32:40.035Z,3.30
2023-05-21T11:35:07.864Z,3.15
2023-05-21T11:37:35.215Z,3.00
2023-05-21T11:40:37.251Z,3.00
2023-05-21T11:43:04.535Z,2.90
2023-05-21T11:45:33.109Z,2.83
2023-05-21T11:48:00.396Z,2.85
2023-05-21T11:50:30.561Z,2.75
2023-05-21T11:52:59.803Z,2.33
2023-05-21T11:55:27.115Z,2.88
2023-05-21T11:57:55.230Z,2.90
2023-05-21T12:00:23.115Z,2.75
2023-05-21T12:02:53.990Z,2.72
2023-05-21T12:05:21.821Z,2.78
2023-05-21T12:07:50.281Z,3.38
2023-05-21T12:10:17.695Z,2.75
2023-05-21T12:12:54.984Z,2.80
2023-05-21T12:15:24.573Z,3.72
2023-05-21T12:17:53.213Z,2.60
2023-05-21T12:20:20.916Z,2.63
2023-05-21T12:22:49.607Z,2.90
2023-05-21T12:25:19.932Z,3.42
2023-05-21T12:27:47.414Z,3.00
2023-05-21T12:30:14.654Z,3.00
2023-05-21T12:32:45.247Z,3.15
2023-05-21T12:35:22.025Z,2.45
2023-05-21T12:37:50.766Z,2.78
2023-05-21T12:40:18.283Z,3.25
2023-05-21T12:42:45.549Z,3.28
2023-05-21T12:45:13.012Z,2.80
2023-05-21T12:47:40.203Z,2.80
2023-05-21T12:50:14.131Z,3.08
2023-05-21T12:52:44.208Z,2.88
2023-05-21T12:55:12.774Z,3.25
2023-05-21T12:57:40.022Z,3.22
2023-05-21T13:00:07.477Z,2.97
2023-05-21T13:02:35.271Z,2.85
2023-05-21T13:05:03.211Z,2.60
2023-05-21T13:07:31.144Z,2.63
2023-05-21T13:09:58.400Z,2.95
2023-05-21T13:12:26.803Z,2.67
2023-05-21T13:14:54.559Z,2.97
2023-05-21T13:17:21.825Z,2.60
2023-05-21T13:20:21.866Z,2.60
2023-05-21T13:22:50.233Z,2.70
2023-05-21T13:25:19.545Z,2.78
2023-05-21T13:27:46.944Z,2.78
2023-05-21T13:30:14.104Z,2.85
2023-05-21T13:32:41.584Z,3.10
2023-05-21T13:35:09.952Z,2.90
2023-05-21T13:37:37.231Z,3.03
2023-05-21T13:40:04.924Z,2.65
2023-05-21T13:42:32.089Z,2.90
2023-05-21T13:44:59.270Z,2.60
2023-05-21T13:47:26.444Z,2.92
2023-05-21T13:49:53.616Z,3.58
2023-05-21T13:52:21.586Z,3.60
2023-05-21T13:54:48.788Z,3.65
2023-05-21T13:57:16.230Z,2.80
2023-05-21T13:59:43.406Z,3.30
2023-05-21T14:02:10.737Z,3.50
2023-05-21T14:04:39.426Z,3.00
2023-05-21T14:07:07.040Z,3.10
2023-05-21T14:09:34.261Z,3.47
2023-05-21T14:12:01.597Z,3.00
2023-05-21T14:14:28.769Z,2.88
2023-05-21T14:16:56.058Z,2.63
2023-05-21T14:19:23.437Z,3.30
2023-05-21T14:21:52.538Z,3.40
2023-05-21T14:24:19.991Z,3.45
2023-05-21T14:26:47.157Z,3.22
2023-05-21T14:29:15.114Z,2.97
2023-05-21T14:31:42.375Z,2.80
2023-05-21T14:34:09.628Z,2.90
2023-05-21T14:36:36.829Z,2.88
2023-05-21T14:39:04.152Z,2.70
2023-05-21T14:41:31.554Z,2.92
2023-05-21T14:43:58.700Z,2.90
2023-05-21T14:46:26.493Z,2.70
2023-05-21T14:48:55.437Z,2.53
2023-05-21T14:51:22.678Z,2.60
2023-05-21T14:53:49.815Z,3.00
2023-05-21T14:56:17.135Z,2.80
2023-05-21T14:58:44.319Z,2.70
2023-05-21T15:01:11.522Z,3.08
2023-05-21T15:03:38.925Z,3.00
2023-05-21T15:06:06.120Z,3.03
2023-05-21T15:08:33.273Z,3.00
2023-05-21T15:11:00.480Z,2.53
2023-05-21T15:13:27.686Z,2.70
2023-05-21T15:15:54.909Z,2.72
2023-05-21T15:18:22.473Z,2.63
2023-05-21T15:20:50.121Z,3.03
2023-05-21T15:23:18.071Z,2.80
2023-05-21T15:25:45.789Z,2.45
2023-05-21T15:28:13.196Z,2.67
2023-05-21T15:30:40.513Z,2.58
2023-05-21T15:33:07.757Z,2.60
2023-05-21T15:35:36.178Z,2.63
2023-05-21T15:38:03.943Z,2.80
2023-05-21T15:40:32.297Z,2.72
2023-05-21T15:43:04.502Z,2.80
2023-05-21T15:45:31.649Z,2.53
2023-05-21T15:47:58.835Z,2.75
2023-05-21T15:50:25.986Z,2.50
2023-05-21T15:52:53.543Z,2.67
2023-05-21T15:55:21.161Z,2.60
2023-05-21T15:57:48.303Z,2.60
2023-05-21T16:00:15.740Z,2.50
2023-05-21T16:02:43.031Z,2.95
2023-05-21T16:05:10.521Z,2.53
2023-05-21T16:07:38.424Z,2.67
2023-05-21T16:10:06.120Z,2.40
2023-05-21T16:12:33.301Z,2.90
2023-05-21T16:15:00.646Z,3.05
2023-05-21T16:17:27.856Z,2.42
2023-05-21T16:19:55.028Z,2.55
2023-05-21T16:22:23.246Z,2.70
2023-05-21T16:24:50.641Z,2.70
2023-05-21T16:27:17.831Z,2.65
2023-05-21T16:29:45.213Z,3.05
2023-05-21T16:32:13.996Z,3.30
2023-05-21T16:34:41.444Z,2.90
2023-05-21T16:37:09.679Z,2.90
2023-05-21T16:39:37.079Z,3.00
2023-05-21T16:42:04.385Z,2.63
2023-05-21T16:44:32.209Z,3.30
2023-05-21T16:47:00.308Z,2.92
2023-05-21T16:49:27.940Z,2.95
2023-05-21T16:51:55.290Z,2.63
2023-05-21T16:54:22.642Z,3.45
2023-05-21T16:56:49.917Z,2.90
2023-05-21T16:59:17.117Z,2.67
2023-05-21T17:01:44.381Z,2.70
2023-05-21T17:04:11.765Z,2.75
2023-05-21T17:06:38.915Z,3.33
2023-05-21T17:09:06.784Z,2.80
2023-05-21T17:11:34.999Z,2.97
2023-05-21T17:14:02.198Z,3.05
2023-05-21T17:16:29.476Z,2.65
2023-05-21T17:18:56.781Z,2.90
2023-05-21T17:21:23.931Z,2.35
2023-05-21T17:23:51.129Z,2.88
2023-05-21T17:26:18.273Z,2.70
2023-05-21T17:28:45.412Z,2.78
2023-05-21T17:31:12.592Z,2.55
2023-05-21T17:33:39.779Z,2.80
2023-05-21T17:36:07.026Z,2.60
2023-05-21T17:38:34.205Z,3.17
2023-05-21T17:41:01.366Z,2.55
2023-05-21T17:43:28.552Z,2.85
2023-05-21T17:45:55.844Z,3.08
2023-05-21T17:48:23.162Z,2.75
2023-05-21T17:50:51.005Z,2.53
2023-05-21T17:53:18.315Z,3.20
2023-05-21T17:55:45.628Z,3.17
2023-05-21T17:58:12.822Z,2.95
2023-05-21T18:00:40.070Z,2.78
2023-05-21T18:03:07.325Z,2.97
2023-05-21T18:05:34.721Z,3.22
2023-05-21T18:08:02.757Z,3.55
2023-05-21T18:10:30.264Z,3.70
2023-05-21T18:12:57.477Z,3.72
2023-05-21T18:15:24.661Z,4.20
2023-05-21T18:17:51.849Z,3.65
2023-05-21T18:20:18.995Z,4.32
2023-05-21T18:22:46.206Z,4.47
2023-05-21T18:25:13.370Z,3.55
2023-05-21T18:27:40.684Z,3.85
2023-05-21T18:30:08.590Z,3.88
2023-05-21T18:32:38.972Z,3.70
2023-05-21T18:35:07.177Z,4.13
2023-05-21T18:37:34.407Z,4.18
2023-05-21T18:40:01.653Z,4.03
2023-05-21T18:42:28.879Z,7.05
2023-05-21T18:44:56.187Z,7.65
2023-05-21T18:47:23.363Z,6.18
2023-05-21T18:49:50.684Z,7.53
2023-05-21T18:52:17.902Z,6.63
2023-05-21T18:54:45.159Z,7.43
2023-05-21T18:57:13.589Z,9.32
2023-05-21T18:59:41.056Z,7.88
2023-05-21T19:02:08.360Z,7.97
2023-05-21T19:04:35.730Z,8.60
2023-05-21T19:07:03.878Z,8.73
2023-05-21T19:09:31.165Z,10.40
2023-05-21T19:12:00.454Z,9.18
2023-05-21T19:14:27.686Z,8.35
2023-05-21T19:16:54.863Z,7.40
2023-05-21T19:19:22.094Z,8.25
2023-05-21T19:21:49.322Z,7.30
2023-05-21T19:24:16.568Z,7.18
2023-05-21T19:26:43.723Z,7.05
2023-05-21T19:29:11.027Z,6.78
2023-05-21T19:31:39.158Z,6.38
2023-05-21T19:34:10.484Z,6.07
2023-05-21T19:36:51.669Z,8.00
2023-05-21T19:39:19.865Z,8.02
2023-05-21T19:41:47.066Z,8.77
2023-05-21T19:44:14.276Z,10.05
2023-05-21T19:46:41.542Z,8.45
2023-05-21T19:49:10.946Z,6.88
2023-05-21T19:51:38.114Z,7.05
2023-05-21T19:54:05.388Z,7.35
2023-05-21T19:56:32.542Z,6.85
2023-05-21T19:58:59.676Z,7.57
2023-05-21T20:01:29.097Z,7.57
2023-05-21T20:03:56.662Z,7.28
2023-05-21T20:06:23.938Z,7.22
2023-05-21T20:08:51.768Z,6.60
2023-05-21T20:11:19.289Z,7.95
2023-05-21T20:13:50.204Z,7.60
2023-05-21T20:16:21.412Z,6.35
2023-05-21T20:18:48.904Z,6.60
2023-05-21T20:21:20.177Z,6.90
2023-05-21T20:23:47.575Z,6.68
2023-05-21T20:26:14.965Z,7.00
2023-05-21T20:28:42.372Z,6.72
2023-05-21T20:31:09.626Z,6.68
2023-05-21T20:33:42.670Z,6.90
2023-05-21T20:36:10.097Z,6.82
2023-05-21T20:38:38.225Z,6.90
2023-05-21T20:41:05.498Z,6.25
2023-05-21T20:43:33.042Z,6.43
2023-05-21T20:46:00.299Z,6.30
2023-05-21T20:48:31.958Z,7.20
2023-05-21T20:51:04.414Z,7.57
2023-05-21T20:53:32.003Z,7.15
2023-05-21T20:56:01.366Z,6.97
2023-05-21T20:58:28.813Z,7.85
2023-05-21T21:00:56.003Z,6.88
2023-05-21T21:03:23.418Z,7.00
2023-05-21T21:05:51.037Z,6.65
2023-05-21T21:08:18.252Z,6.53
2023-05-21T21:10:47.023Z,6.78
2023-05-21T21:13:14.703Z,6.53
2023-05-21T21:15:43.920Z,6.97
2023-05-21T21:18:12.547Z,7.38
2023-05-21T21:20:41.347Z,7.15
2023-05-21T21:23:08.838Z,6.82
2023-05-21T21:25:36.136Z,7.10
2023-05-21T21:28:03.341Z,7.25
2023-05-21T21:30:31.112Z,6.95
2023-05-21T21:32:58.406Z,6.53
2023-05-21T21:35:25.673Z,6.70
2023-05-21T21:37:52.850Z,7.25
2023-05-21T21:40:19.997Z,5.80
2023-05-21T21:42:47.214Z,6.32
2023-05-21T21:45:14.357Z,6.18
2023-05-21T21:47:41.550Z,6.38
2023-05-21T21:50:08.962Z,6.28
2023-05-21T21:52:39.893Z,6.13
2023-05-21T21:55:08.902Z,6.03
2023-05-21T21:57:36.441Z,5.63
2023-05-21T22:00:11.161Z,6.05
2023-05-21T22:02:40.146Z,7.93
2023-05-21T22:05:08.667Z,7.60
2023-05-21T22:07:38.888Z,8.63
2023-05-21T22:10:06.646Z,8.23
2023-05-21T22:12:34.180Z,8.75
2023-05-21T22:15:05.108Z,8.10
2023-05-21T22:17:32.823Z,8.63
2023-05-21T22:20:00.456Z,9.23
2023-05-21T22:22:27.718Z,9.52
2023-05-21T22:24:54.935Z,10.18
2023-05-21T22:27:22.089Z,9.45
2023-05-21T22:29:49.291Z,10.90
2023-05-21T22:32:16.576Z,11.65
2023-05-21T22:34:43.783Z,10.20
2023-05-21T22:37:11.110Z,10.82
2023-05-21T22:39:38.362Z,10.10
2023-05-21T22:42:05.687Z,10.10
2023-05-21T22:44:33.637Z,11.48
2023-05-21T22:47:01.143Z,10.77
2023-05-21T22:49:28.465Z,10.82
2023-05-21T22:51:56.452Z,9.68
2023-05-21T22:54:23.643Z,10.35
2023-05-21T22:56:50.960Z,10.15
2023-05-21T22:59:18.158Z,9.88
2023-05-21T23:01:45.370Z,9.85
2023-05-21T23:04:13.104Z,9.98
2023-05-21T23:06:40.261Z,10.10
2023-05-21T23:09:07.502Z,9.77
2023-05-21T23:11:34.653Z,10.23
2023-05-21T23:14:01.954Z,10.18
2023-05-21T23:16:30.852Z,9.70
2023-05-21T23:18:58.104Z,9.52
2023-05-21T23:21:25.479Z,9.02
2023-05-21T23:23:52.648Z,8.27
2023-05-21T23:26:19.872Z,8.68
2023-05-21T23:28:47.091Z,9.40
2023-05-21T23:31:14.289Z,8.55
2023-05-21T23:33:41.452Z,8.40
2023-05-21T23:36:08.898Z,8.43
2023-05-21T23:38:36.376Z,8.90
2023-05-21T23:41:03.530Z,8.73
2023-05-21T23:43:30.730Z,8.38
2023-05-21T23:45:57.940Z,8.30
2023-05-21T23:48:25.155Z,8.15
2023-05-21T23:50:52.456Z,7.93
2023-05-21T23:53:19.604Z,7.95
2023-05-21T23:55:46.764Z,8.80
2023-05-21T23:58:13.909Z,8.55
